createdAt,value
2018-11-27T00:07:55.523Z,7.58
2018-11-27T00:16:16.512Z,7.50
2018-11-27T00:24:37.493Z,7.43
2018-11-27T00:32:58.499Z,7.32
2018-11-27T00:41:20.542Z,7.22
2018-11-27T00:49:41.528Z,7.13
2018-11-27T00:58:02.557Z,7.02
2018-11-27T01:06:23.595Z,6.95
2018-11-27T01:14:44.607Z,6.85
2018-11-27T01:23:05.662Z,6.75
2018-11-27T01:31:26.689Z,6.64
2018-11-27T01:39:47.696Z,6.53
2018-11-27T01:48:08.685Z,6.43
2018-11-27T01:56:30.726Z,6.40
2018-11-27T02:04:51.729Z,6.46
2018-11-27T02:13:12.785Z,6.55
2018-11-27T02:21:33.773Z,6.39
2018-11-27T02:29:54.797Z,6.28
2018-11-27T02:38:15.815Z,6.11
2018-11-27T02:46:36.824Z,5.96
2018-11-27T02:54:57.832Z,5.77
2018-11-27T03:03:18.839Z,5.63
2018-11-27T03:11:39.849Z,5.56
2018-11-27T03:20:00.851Z,5.46
2018-11-27T03:28:21.866Z,5.34
2018-11-27T03:36:42.970Z,5.29
2018-11-27T03:45:03.979Z,5.29
2018-11-27T03:53:25.059Z,5.24
2018-11-27T04:01:46.091Z,5.20
2018-11-27T04:10:08.175Z,5.24
2018-11-27T04:18:29.194Z,5.20
2018-11-27T04:26:50.212Z,5.18
2018-11-27T04:35:11.219Z,5.21
2018-11-27T04:43:32.285Z,5.34
2018-11-27T04:51:53.291Z,5.56
2018-11-27T05:00:14.322Z,5.82
2018-11-27T05:08:35.333Z,6.04
2018-11-27T05:16:56.334Z,6.21
2018-11-27T05:25:17.711Z,6.31
2018-11-27T05:33:38.719Z,6.33
2018-11-27T05:41:59.727Z,6.47
2018-11-27T05:50:20.751Z,6.51
2018-11-27T05:58:42.781Z,6.50
2018-11-27T06:07:03.779Z,6.55
2018-11-27T06:15:24.871Z,6.57
2018-11-27T06:23:45.911Z,6.63
2018-11-27T06:32:07.006Z,6.70
2018-11-27T06:40:28.021Z,6.66
2018-11-27T06:48:49.031Z,6.71
2018-11-27T06:57:10.031Z,6.81
2018-11-27T07:05:31.054Z,6.86
2018-11-27T07:13:52.040Z,6.95
2018-11-27T07:22:13.040Z,7.02
2018-11-27T07:30:34.064Z,7.12
2018-11-27T07:38:55.052Z,7.15
2018-11-27T07:47:16.138Z,7.26
2018-11-27T07:55:37.169Z,7.30
2018-11-27T08:03:58.261Z,7.33
2018-11-27T08:12:19.268Z,7.48
2018-11-27T08:20:40.587Z,7.56
2018-11-27T08:29:01.615Z,7.81
2018-11-27T08:37:22.723Z,7.86
2018-11-27T08:45:43.743Z,7.99
2018-11-27T08:54:04.794Z,8.09
2018-11-27T09:02:25.791Z,8.18
2018-11-27T09:10:46.785Z,8.23
2018-11-27T09:19:07.789Z,8.36
2018-11-27T09:27:28.800Z,8.59
2018-11-27T09:35:49.787Z,8.77
2018-11-27T09:44:10.810Z,9.00
2018-11-27T09:52:31.813Z,9.17
2018-11-27T10:00:52.819Z,9.36
2018-11-27T10:09:13.806Z,9.50
2018-11-27T10:17:35.375Z,9.51
2018-11-27T10:25:55.989Z,9.65
2018-11-27T10:34:16.974Z,9.75
2018-11-27T10:42:37.968Z,9.84
2018-11-27T10:50:59.016Z,9.97
2018-11-27T10:59:20.006Z,10.01
2018-11-27T11:07:42.055Z,10.14
2018-11-27T11:16:03.279Z,10.34
2018-11-27T11:24:24.318Z,10.40
2018-11-27T11:32:45.343Z,10.34
2018-11-27T11:41:06.407Z,10.38
2018-11-27T11:49:27.439Z,10.52
2018-11-27T11:57:48.433Z,10.57
2018-11-27T12:06:09.457Z,10.53
2018-11-27T12:14:30.476Z,10.52
2018-11-27T12:22:51.500Z,10.39
2018-11-27T12:31:12.595Z,10.35
2018-11-27T12:39:33.618Z,10.24
2018-11-27T12:47:54.607Z,10.26
2018-11-27T12:56:15.611Z,10.31
2018-11-27T13:04:36.644Z,10.28
2018-11-27T13:12:57.655Z,10.34
2018-11-27T13:21:18.684Z,10.38
2018-11-27T13:29:39.781Z,10.04
2018-11-27T13:38:00.822Z,9.44
2018-11-27T13:46:21.846Z,9.38
2018-11-27T13:54:42.859Z,9.65
2018-11-27T14:03:03.898Z,9.81
2018-11-27T14:11:24.899Z,9.79
2018-11-27T14:19:45.929Z,9.84
2018-11-27T14:28:06.966Z,9.88
2018-11-27T14:36:27.975Z,9.86
2018-11-27T14:44:48.985Z,9.82
2018-11-27T14:53:09.999Z,9.36
2018-11-27T15:01:31.026Z,9.41
2018-11-27T15:09:52.128Z,9.52
2018-11-27T15:18:13.149Z,9.57
2018-11-27T15:26:34.296Z,9.45
2018-11-27T15:34:55.319Z,9.09
2018-11-27T15:43:16.340Z,8.87
2018-11-27T15:51:37.327Z,8.87
2018-11-27T15:59:58.388Z,9.08
2018-11-27T16:08:19.415Z,9.14
2018-11-27T16:16:40.402Z,9.18
2018-11-27T16:25:01.439Z,9.13
2018-11-27T16:33:22.463Z,9.23
2018-11-27T16:41:43.499Z,9.22
2018-11-27T16:50:04.484Z,9.29
2018-11-27T16:58:25.530Z,9.05
2018-11-27T17:06:46.571Z,9.10
2018-11-27T17:15:07.599Z,9.07
2018-11-27T17:23:28.600Z,9.08
2018-11-27T17:31:49.600Z,9.05
2018-11-27T17:40:10.694Z,8.97
2018-11-27T17:48:31.703Z,8.93
2018-11-27T17:56:52.688Z,8.53
2018-11-27T18:05:13.748Z,8.13
2018-11-27T18:13:34.766Z,7.67
2018-11-27T18:21:55.839Z,7.26
2018-11-27T18:30:16.839Z,6.96
2018-11-27T18:38:37.928Z,6.57
2018-11-27T18:46:58.930Z,6.36
2018-11-27T18:55:19.940Z,6.08
2018-11-27T19:03:40.952Z,5.90
2018-11-27T19:12:01.979Z,5.76
2018-11-27T19:20:23.025Z,5.56
2018-11-27T19:28:44.034Z,5.43
2018-11-27T19:37:05.042Z,5.18
2018-11-27T19:45:26.074Z,5.04
2018-11-27T19:53:47.122Z,4.97
2018-11-27T20:02:08.155Z,4.95
2018-11-27T20:10:29.160Z,4.80
2018-11-27T20:18:50.571Z,4.72
2018-11-27T20:27:11.602Z,4.69
2018-11-27T20:35:32.632Z,4.60
2018-11-27T20:43:53.711Z,4.65
2018-11-27T20:52:14.759Z,4.67
2018-11-27T21:00:35.801Z,4.66
2018-11-27T21:08:56.970Z,4.59
2018-11-27T21:17:18.074Z,4.48
2018-11-27T21:25:39.100Z,4.37
2018-11-27T21:34:00.130Z,4.35
2018-11-27T21:42:21.116Z,4.20
2018-11-27T21:50:42.119Z,4.11
2018-11-27T21:59:03.172Z,4.04
2018-11-27T22:07:24.160Z,3.96
2018-11-27T22:15:45.163Z,3.88
2018-11-27T22:24:06.195Z,3.82
2018-11-27T22:32:27.207Z,3.80
2018-11-27T22:40:48.232Z,3.69
2018-11-27T22:49:09.274Z,3.71
2018-11-27T22:57:30.284Z,3.71
2018-11-27T23:05:51.302Z,3.64
2018-11-27T23:14:12.314Z,3.46
2018-11-27T23:22:33.356Z,3.34
2018-11-27T23:30:54.383Z,3.35
2018-11-27T23:39:15.380Z,3.29
2018-11-27T23:47:36.387Z,3.25
2018-11-27T23:55:57.409Z,3.16
